| time (UTC) | temp C | wind direction | speed KPH | gust KPH | rain 1hr cm | rain 24hr cm | rain mn cm | humidity % | barometer mb |
| 20260502152040 | 11 | 290 | 3.2 | 6.4 | 0.00 | 0.00 | 0.00 | 50 | 1021.9 |
| 20260502151538 | 11 | 290 | 3.2 | 6.4 | 0.00 | 0.00 | 0.00 | 48 | 1021.9 |
| 20260502151034 | 11 | 291 | 3.2 | 8.0 | 0.00 | 0.00 | 0.00 | 48 | 1021.9 |
| 20260502150603 | 11 | 289 | 4.8 | 8.0 | 0.00 | 0.00 | 0.00 | 51 | 1021.9 |
| 20260502130624 | 4 | 322 | 1.6 | 3.2 | 0.00 | 0.00 | 0.00 | 75 | 1022.1 |
| 20260502123532 | 2 | 322 | 0.0 | 0.0 | 0.00 | 0.00 | 0.00 | 78 | 1022.0 |
| 20260502123131 | 2 | 322 | 0.0 | 0.0 | 0.00 | 0.00 | 0.00 | 79 | 1022.0 |
| 20260502122544 | 2 | 322 | 0.0 | 0.0 | 0.00 | 0.00 | 0.00 | 79 | 1022.0 |
| 20260502122040 | 2 | 322 | 0.0 | 0.0 | 0.00 | 0.00 | 0.00 | 81 | 1022.0 |
| 20260502121538 | 2 | 322 | 0.0 | 0.0 | 0.00 | 0.00 | 0.00 | 81 | 1021.9 |
| 20260502121035 | 1 | 322 | 0.0 | 0.0 | 0.00 | 0.00 | 0.00 | 81 | 1021.9 |
| 20260502120604 | 1 | 322 | 0.0 | 0.0 | 0.00 | 0.00 | 0.00 | 81 | 1021.9 |
| 20260502115540 | 1 | 322 | 0.0 | 0.0 | 0.00 | 0.00 | 0.00 | 82 | 1021.8 |
| 20260502115039 | 1 | 322 | 0.0 | 3.2 | 0.00 | 0.00 | 0.00 | 81 | 1021.9 |
| 20260502114537 | 1 | 322 | 1.6 | 3.2 | 0.00 | 0.00 | 0.00 | 82 | 1021.8 |
| 20260502114035 | 1 | 322 | 0.0 | 0.0 | 0.00 | 0.00 | 0.00 | 82 | 1021.7 |
| 20260502113534 | 1 | 322 | 0.0 | 0.0 | 0.00 | 0.00 | 0.00 | 82 | 1021.7 |
| 20260502113048 | 1 | 322 | 0.0 | 0.0 | 0.00 | 0.00 | 0.00 | 81 | 1021.7 |
| 20260502112531 | 1 | 322 | 0.0 | 0.0 | 0.00 | 0.00 | 0.00 | 81 | 1021.7 |
| 20260502112105 | 1 | 322 | 0.0 | 1.6 | 0.00 | 0.00 | 0.00 | 81 | 1021.6 |
| 20260502111546 | 1 | 322 | 0.0 | 1.6 | 0.00 | 0.00 | 0.00 | 81 | 1021.6 |
| 20260502111043 | 1 | 322 | 0.0 | 0.0 | 0.00 | 0.00 | 0.00 | 81 | 1021.5 |
| 20260502110551 | 1 | 322 | 0.0 | 0.0 | 0.00 | 0.00 | 0.00 | 80 | 1021.5 |
| 20260502110050 | 1 | 322 | 0.0 | 0.0 | 0.00 | 0.00 | 0.00 | 81 | 1021.5 |
| 20260502105548 | 1 | 322 | 0.0 | 0.0 | 0.00 | 0.00 | 0.00 | 81 | 1021.5 |
| 20260502105046 | 1 | 322 | 0.0 | 0.0 | 0.00 | 0.00 | 0.00 | 81 | 1021.4 |
| 20260502104543 | 1 | 322 | 0.0 | 0.0 | 0.00 | 0.00 | 0.00 | 81 | 1021.4 |
| 20260502104041 | 1 | 322 | 0.0 | 0.0 | 0.00 | 0.00 | 0.00 | 80 | 1021.4 |
| 20260502103536 | 1 | 322 | 0.0 | 0.0 | 0.00 | 0.00 | 0.00 | 80 | 1021.5 |
| 20260502103033 | 1 | 322 | 0.0 | 0.0 | 0.00 | 0.00 | 0.00 | 81 | 1021.4 |
| 20260502102531 | 1 | 322 | 0.0 | 0.0 | 0.00 | 0.00 | 0.00 | 81 | 1021.4 |
| 20260502102110 | 2 | 322 | 0.0 | 0.0 | 0.00 | 0.00 | 0.00 | 81 | 1021.3 |
| 20260502101546 | 2 | 322 | 0.0 | 0.0 | 0.00 | 0.00 | 0.00 | 80 | 1021.3 |
| 20260502101042 | 2 | 322 | 0.0 | 0.0 | 0.00 | 0.00 | 0.00 | 78 | 1021.3 |
| 20260502091039 | 3 | 322 | 0.0 | 0.0 | 0.00 | 0.00 | 0.00 | 72 | 1021.0 |
| 20260502090608 | 3 | 322 | 0.0 | 0.0 | 0.00 | 0.00 | 0.00 | 70 | 1021.0 |
| 20260502071534 | 4 | 322 | 0.0 | 0.0 | 0.00 | 0.00 | 0.00 | 66 | 1021.1 |
| 20260502071033 | 4 | 322 | 0.0 | 0.0 | 0.00 | 0.00 | 0.00 | 67 | 1021.2 |
| 20260502070600 | 5 | 322 | 0.0 | 0.0 | 0.00 | 0.00 | 0.00 | 65 | 1021.1 |
| 20260502070039 | 5 | 322 | 0.0 | 0.0 | 0.00 | 0.00 | 0.00 | 65 | 1021.1 |
| 20260502065558 | 4 | 322 | 0.0 | 0.0 | 0.00 | 0.00 | 0.00 | 65 | 1021.2 |
| 20260502065033 | 4 | 322 | 0.0 | 0.0 | 0.00 | 0.00 | 0.00 | 66 | 1021.1 |
| 20260502064536 | 5 | 322 | 0.0 | 0.0 | 0.00 | 0.00 | 0.00 | 69 | 1021.1 |
| 20260502064053 | 5 | 322 | 0.0 | 0.0 | 0.00 | 0.00 | 0.00 | 69 | 1021.2 |
| 20260502063549 | 5 | 322 | 0.0 | 0.0 | 0.00 | 0.00 | 0.00 | 68 | 1021.2 |
| 20260502063046 | 5 | 322 | 0.0 | 0.0 | 0.00 | 0.00 | 0.00 | 66 | 1021.2 |
| 20260502062607 | 5 | 322 | 0.0 | 0.0 | 0.00 | 0.00 | 0.00 | 64 | 1021.1 |
| 20260502062043 | 5 | 322 | 0.0 | 0.0 | 0.00 | 0.00 | 0.00 | 63 | 1021.2 |
| 20260502061541 | 5 | 322 | 0.0 | 0.0 | 0.00 | 0.00 | 0.00 | 62 | 1021.1 |
| 20260502061039 | 5 | 322 | 0.0 | 0.0 | 0.00 | 0.00 | 0.00 | 61 | 1021.1 |
| 20260502060607 | 6 | 322 | 0.0 | 0.0 | 0.00 | 0.00 | 0.00 | 59 | 1021.0 |
| 20260502060045 | 6 | 322 | 0.0 | 0.0 | 0.00 | 0.00 | 0.00 | 59 | 1021.0 |
| 20260502055542 | 6 | 322 | 0.0 | 0.0 | 0.00 | 0.00 | 0.00 | 60 | 1021.0 |
| 20260502055102 | 6 | 322 | 0.0 | 0.0 | 0.00 | 0.00 | 0.00 | 59 | 1021.0 |
| 20260502054540 | 6 | 322 | 0.0 | 0.0 | 0.00 | 0.00 | 0.00 | 56 | 1021.0 |
| 20260502054036 | 6 | 322 | 0.0 | 0.0 | 0.00 | 0.00 | 0.00 | 56 | 1020.9 |
| 20260502053533 | 6 | 322 | 0.0 | 0.0 | 0.00 | 0.00 | 0.00 | 55 | 1020.9 |
| 20260502053051 | 6 | 322 | 0.0 | 0.0 | 0.00 | 0.00 | 0.00 | 55 | 1020.9 |
| 20260502052608 | 6 | 322 | 0.0 | 0.0 | 0.00 | 0.00 | 0.00 | 56 | 1020.9 |
| 20260502052043 | 6 | 322 | 0.0 | 0.0 | 0.00 | 0.00 | 0.00 | 54 | 1020.8 |
| 20260502051541 | 6 | 322 | 0.0 | 0.0 | 0.00 | 0.00 | 0.00 | 55 | 1020.8 |
| 20260502051037 | 7 | 322 | 0.0 | 0.0 | 0.00 | 0.00 | 0.00 | 54 | 1020.9 |
| 20260502050604 | 7 | 322 | 0.0 | 0.0 | 0.00 | 0.00 | 0.00 | 53 | 1020.8 |
| 20260502050044 | 7 | 322 | 0.0 | 0.0 | 0.00 | 0.00 | 0.00 | 53 | 1020.8 |
| 20260502045541 | 7 | 322 | 0.0 | 1.6 | 0.00 | 0.00 | 0.00 | 53 | 1020.7 |
| 20260502045036 | 7 | 322 | 0.0 | 1.6 | 0.00 | 0.00 | 0.00 | 52 | 1020.7 |
| 20260502044533 | 7 | 322 | 0.0 | 1.6 | 0.00 | 0.00 | 0.00 | 52 | 1020.7 |
| 20260502044048 | 7 | 322 | 0.0 | 0.0 | 0.00 | 0.00 | 0.00 | 53 | 1020.7 |
| 20260502043545 | 7 | 322 | 0.0 | 0.0 | 0.00 | 0.00 | 0.00 | 53 | 1020.7 |
| 20260502043059 | 7 | 322 | 0.0 | 0.0 | 0.00 | 0.00 | 0.00 | 54 | 1020.7 |
| 20260502042606 | 7 | 322 | 0.0 | 0.0 | 0.00 | 0.00 | 0.00 | 54 | 1020.7 |
| 20260502042041 | 7 | 322 | 0.0 | 0.0 | 0.00 | 0.00 | 0.00 | 55 | 1020.7 |
| 20260502041537 | 7 | 322 | 0.0 | 0.0 | 0.00 | 0.00 | 0.00 | 54 | 1020.7 |
| 20260502041051 | 7 | 322 | 0.0 | 1.6 | 0.00 | 0.00 | 0.00 | 54 | 1020.7 |
| 20260502040558 | 7 | 322 | 0.0 | 1.6 | 0.00 | 0.00 | 0.00 | 54 | 1020.6 |
| 20260502040036 | 7 | 322 | 0.0 | 1.6 | 0.00 | 0.00 | 0.00 | 54 | 1020.6 |
| 20260502035552 | 7 | 322 | 0.0 | 0.0 | 0.00 | 0.00 | 0.00 | 53 | 1020.6 |
| 20260502035109 | 7 | 322 | 0.0 | 1.6 | 0.00 | 0.00 | 0.00 | 53 | 1020.5 |
| 20260502034625 | 7 | 322 | 0.0 | 1.6 | 0.00 | 0.00 | 0.00 | 54 | 1020.6 |
| 20260502034056 | 7 | 322 | 1.6 | 1.6 | 0.00 | 0.00 | 0.00 | 53 | 1020.6 |
| 20260502033551 | 7 | 322 | 1.6 | 1.6 | 0.00 | 0.00 | 0.00 | 53 | 1020.5 |
| 20260502032541 | 7 | 322 | 0.0 | 1.6 | 0.00 | 0.00 | 0.00 | 53 | 1020.4 |
| 20260502032038 | 7 | 322 | 0.0 | 1.6 | 0.00 | 0.00 | 0.00 | 52 | 1020.4 |
| 20260502031533 | 7 | 322 | 1.6 | 1.6 | 0.00 | 0.00 | 0.00 | 52 | 1020.4 |
| 20260502031110 | 7 | 322 | 1.6 | 3.2 | 0.00 | 0.00 | 0.00 | 51 | 1020.4 |
| 20260502030559 | 8 | 322 | 0.0 | 3.2 | 0.00 | 0.00 | 0.00 | 51 | 1020.3 |
| 20260502030037 | 8 | 322 | 0.0 | 0.0 | 0.00 | 0.00 | 0.00 | 50 | 1020.3 |
| 20260502025533 | 8 | 322 | 0.0 | 0.0 | 0.00 | 0.00 | 0.00 | 50 | 1020.2 |
| 20260502025110 | 8 | 322 | 0.0 | 0.0 | 0.00 | 0.00 | 0.00 | 50 | 1020.2 |
| 20260502024544 | 8 | 322 | 0.0 | 0.0 | 0.00 | 0.00 | 0.00 | 49 | 1020.2 |
| 20260502024042 | 8 | 322 | 0.0 | 3.2 | 0.00 | 0.00 | 0.00 | 48 | 1020.2 |
| 20260502023538 | 8 | 322 | 0.0 | 3.2 | 0.00 | 0.00 | 0.00 | 48 | 1020.0 |
| 20260502023039 | 8 | 322 | 0.0 | 3.2 | 0.00 | 0.00 | 0.00 | 48 | 1019.9 |
| 20260502022535 | 8 | 322 | 1.6 | 3.2 | 0.00 | 0.00 | 0.00 | 47 | 1019.9 |
| 20260502022112 | 8 | 322 | 1.6 | 3.2 | 0.00 | 0.00 | 0.00 | 46 | 1019.9 |
| 20260502021608 | 9 | 322 | 1.6 | 4.8 | 0.00 | 0.00 | 0.00 | 46 | 1019.8 |
| 20260502021041 | 9 | 322 | 1.6 | 3.2 | 0.00 | 0.00 | 0.00 | 46 | 1019.7 |
| 20260502020609 | 9 | 322 | 1.6 | 6.4 | 0.00 | 0.00 | 0.00 | 45 | 1019.7 |
| 20260502020047 | 9 | 322 | 3.2 | 6.4 | 0.00 | 0.00 | 0.00 | 45 | 1019.6 |
| 20260502015543 | 10 | 322 | 3.2 | 8.0 | 0.00 | 0.00 | 0.00 | 45 | 1019.5 |
| 20260502015039 | 10 | 321 | 3.2 | 8.0 | 0.00 | 0.00 | 0.00 | 45 | 1019.5 |
| 20260502014533 | 10 | 350 | 3.2 | 8.0 | 0.00 | 0.00 | 0.00 | 44 | 1019.4 |
| 20260502014049 | 10 | 318 | 3.2 | 6.4 | 0.00 | 0.00 | 0.00 | 43 | 1019.3 |
| 20260502013544 | 10 | 318 | 3.2 | 4.8 | 0.00 | 0.00 | 0.00 | 42 | 1019.3 |
| 20260502013040 | 10 | 330 | 3.2 | 8.0 | 0.00 | 0.00 | 0.00 | 42 | 1019.3 |
| 20260502012537 | 11 | 330 | 3.2 | 8.0 | 0.00 | 0.00 | 0.00 | 42 | 1019.2 |
| 20260502012031 | 11 | 356 | 4.8 | 8.0 | 0.00 | 0.00 | 0.00 | 42 | 1019.2 |
| 20260502011609 | 11 | 347 | 4.8 | 12.9 | 0.00 | 0.00 | 0.00 | 41 | 1019.1 |
| 20260502011043 | 11 | 358 | 4.8 | 14.5 | 0.00 | 0.00 | 0.00 | 39 | 1019.1 |
| 20260502010551 | 11 | 348 | 6.4 | 14.5 | 0.00 | 0.00 | 0.00 | 40 | 1019.0 |
| 20260502010048 | 11 | 335 | 4.8 | 16.1 | 0.00 | 0.00 | 0.00 | 40 | 1019.0 |
| 20260502005604 | 12 | 299 | 6.4 | 17.7 | 0.00 | 0.00 | 0.00 | 39 | 1018.9 |
| 20260502005101 | 12 | 358 | 4.8 | 12.9 | 0.00 | 0.00 | 0.00 | 38 | 1018.9 |
| 20260502004554 | 12 | 335 | 6.4 | 16.1 | 0.00 | 0.00 | 0.00 | 37 | 1018.8 |
| 20260502004050 | 12 | 328 | 9.7 | 16.1 | 0.00 | 0.00 | 0.00 | 38 | 1018.7 |
| 20260502003546 | 12 | 323 | 3.2 | 12.9 | 0.00 | 0.00 | 0.00 | 38 | 1018.7 |
| 20260502003040 | 12 | 336 | 4.8 | 12.9 | 0.00 | 0.00 | 0.00 | 37 | 1018.6 |
| 20260502002540 | 12 | 299 | 4.8 | 11.3 | 0.00 | 0.00 | 0.00 | 37 | 1018.6 |
| 20260502002036 | 12 | 329 | 4.8 | 11.3 | 0.00 | 0.00 | 0.00 | 36 | 1018.6 |
| 20260502001531 | 12 | 316 | 4.8 | 11.3 | 0.00 | 0.00 | 0.00 | 36 | 1018.6 |
| 20260502001048 | 12 | 330 | 8.0 | 20.9 | 0.00 | 0.00 | 0.00 | 37 | 1018.6 |
| 20260502000556 | 12 | 349 | 8.0 | 20.9 | 0.00 | 0.00 | 0.00 | 35 | 1018.5 |
| 20260502000033 | 13 | 354 | 6.4 | 16.1 | 0.00 | 0.00 | 0.00 | 36 | 1018.5 |
| 20260501235551 | 13 | 311 | 8.0 | 16.1 | 0.00 | 0.00 | 0.00 | 34 | 1018.5 |
| 20260501235035 | 13 | 340 | 9.7 | 14.5 | 0.00 | 0.00 | 0.00 | 34 | 1018.5 |
| 20260501234550 | 13 | 323 | 8.0 | 14.5 | 0.00 | 0.00 | 0.00 | 36 | 1018.5 |
| 20260501234044 | 13 | 343 | 6.4 | 14.5 | 0.00 | 0.00 | 0.00 | 36 | 1018.5 |
| 20260501233538 | 13 | 12 | 6.4 | 24.1 | 0.00 | 0.00 | 0.00 | 35 | 1018.5 |
| 20260501233034 | 13 | 346 | 11.3 | 24.1 | 0.00 | 0.00 | 0.00 | 34 | 1018.5 |
| 20260501232531 | 13 | 316 | 8.0 | 17.7 | 0.00 | 0.00 | 0.00 | 35 | 1018.4 |
| 20260501232046 | 14 | 309 | 6.4 | 14.5 | 0.00 | 0.00 | 0.00 | 34 | 1018.4 |
| 20260501231543 | 14 | 337 | 8.0 | 16.1 | 0.00 | 0.00 | 0.00 | 33 | 1018.3 |
| 20260501231039 | 14 | 360 | 8.0 | 16.1 | 0.00 | 0.00 | 0.00 | 33 | 1018.3 |
| 20260501230626 | 15 | 329 | 3.2 | 14.5 | 0.00 | 0.00 | 0.00 | 36 | 1018.4 |
| 20260501230106 | 14 | 332 | 6.4 | 14.5 | 0.00 | 0.00 | 0.00 | 36 | 1018.4 |
| 20260501225540 | 14 | 326 | 4.8 | 12.9 | 0.00 | 0.00 | 0.00 | 34 | 1018.3 |
| 20260501225035 | 14 | 309 | 4.8 | 17.7 | 0.00 | 0.00 | 0.00 | 36 | 1018.3 |
| 20260501224530 | 14 | 330 | 6.4 | 17.7 | 0.00 | 0.00 | 0.00 | 36 | 1018.3 |
| 20260501224110 | 13 | 323 | 11.3 | 20.9 | 0.00 | 0.00 | 0.00 | 34 | 1018.3 |
| 20260501223544 | 13 | 355 | 11.3 | 20.9 | 0.00 | 0.00 | 0.00 | 34 | 1018.3 |
| 20260501223103 | 13 | 311 | 12.9 | 20.9 | 0.00 | 0.00 | 0.00 | 34 | 1018.3 |
| 20260501222541 | 13 | 321 | 6.4 | 12.9 | 0.00 | 0.00 | 0.00 | 35 | 1018.3 |
| 20260501222038 | 14 | 10 | 8.0 | 16.1 | 0.00 | 0.00 | 0.00 | 35 | 1018.3 |
| 20260501221533 | 14 | 266 | 6.4 | 16.1 | 0.00 | 0.00 | 0.00 | 35 | 1018.2 |
| 20260501221030 | 14 | 283 | 9.7 | 16.1 | 0.00 | 0.00 | 0.00 | 36 | 1018.2 |
| 20260501220621 | 13 | 318 | 3.2 | 22.5 | 0.00 | 0.00 | 0.00 | 37 | 1018.1 |
| 20260501220037 | 13 | 25 | 11.3 | 22.5 | 0.00 | 0.00 | 0.00 | 36 | 1018.2 |
| 20260501215532 | 13 | 295 | 8.0 | 16.1 | 0.00 | 0.00 | 0.00 | 36 | 1018.2 |
| 20260501215049 | 13 | 325 | 9.7 | 16.1 | 0.00 | 0.00 | 0.00 | 34 | 1018.1 |
| 20260501214607 | 13 | 321 | 11.3 | 19.3 | 0.00 | 0.00 | 0.00 | 36 | 1018.1 |
| 20260501214042 | 13 | 313 | 9.7 | 22.5 | 0.00 | 0.00 | 0.00 | 34 | 1018.3 |
| 20260501213537 | 13 | 319 | 12.9 | 24.1 | 0.00 | 0.00 | 0.00 | 34 | 1018.3 |
| 20260501213034 | 13 | 338 | 11.3 | 20.9 | 0.00 | 0.00 | 0.00 | 35 | 1018.3 |
| 20260501212611 | 14 | 329 | 9.7 | 24.1 | 0.00 | 0.00 | 0.00 | 34 | 1018.3 |
| 20260501212046 | 14 | 321 | 8.0 | 24.1 | 0.00 | 0.00 | 0.00 | 35 | 1018.3 |
| 20260501211603 | 14 | 333 | 9.7 | 27.4 | 0.00 | 0.00 | 0.00 | 34 | 1018.4 |
| 20260501211038 | 15 | 343 | 9.7 | 16.1 | 0.00 | 0.00 | 0.00 | 35 | 1018.3 |
| 20260501210627 | 15 | 296 | 9.7 | 14.5 | 0.00 | 0.00 | 0.00 | 37 | 1018.3 |
| 20260501210043 | 15 | 313 | 8.0 | 17.7 | 0.00 | 0.00 | 0.00 | 38 | 1018.4 |
| 20260501205538 | 15 | 304 | 11.3 | 17.7 | 0.00 | 0.00 | 0.00 | 37 | 1018.5 |
| 20260501205034 | 15 | 290 | 8.0 | 14.5 | 0.00 | 0.00 | 0.00 | 39 | 1018.5 |
| 20260501204548 | 15 | 359 | 6.4 | 12.9 | 0.00 | 0.00 | 0.00 | 38 | 1018.6 |
| 20260501204105 | 15 | 324 | 9.7 | 19.3 | 0.00 | 0.00 | 0.00 | 38 | 1018.6 |
| 20260501203559 | 14 | 295 | 6.4 | 19.3 | 0.00 | 0.00 | 0.00 | 38 | 1018.6 |
| 20260501203035 | 14 | 311 | 6.4 | 22.5 | 0.00 | 0.00 | 0.00 | 40 | 1018.6 |
| 20260501202550 | 13 | 315 | 11.3 | 22.5 | 0.00 | 0.00 | 0.00 | 39 | 1018.6 |
| 20260501202044 | 13 | 337 | 8.0 | 16.1 | 0.00 | 0.00 | 0.00 | 39 | 1018.7 |
| 20260501201544 | 13 | 330 | 9.7 | 16.1 | 0.00 | 0.00 | 0.00 | 39 | 1018.8 |
| 20260501201040 | 15 | 319 | 8.0 | 16.1 | 0.00 | 0.00 | 0.00 | 39 | 1018.8 |
| 20260501200608 | 15 | 338 | 6.4 | 16.1 | 0.00 | 0.00 | 0.00 | 46 | 1018.7 |
| 20260501200046 | 13 | 357 | 6.4 | 19.3 | 0.00 | 0.00 | 0.00 | 42 | 1018.8 |
| 20260501195541 | 13 | 349 | 11.3 | 19.3 | 0.00 | 0.00 | 0.00 | 40 | 1018.8 |
| 20260501195037 | 13 | 302 | 6.4 | 16.1 | 0.00 | 0.00 | 0.00 | 42 | 1018.8 |
| 20260501194532 | 13 | 300 | 11.3 | 20.9 | 0.00 | 0.00 | 0.00 | 41 | 1018.9 |
| 20260501194030 | 14 | 302 | 11.3 | 19.3 | 0.00 | 0.00 | 0.00 | 42 | 1018.8 |
| 20260501193548 | 13 | 300 | 4.8 | 16.1 | 0.00 | 0.00 | 0.00 | 45 | 1018.7 |
| 20260501193046 | 13 | 313 | 8.0 | 24.1 | 0.00 | 0.00 | 0.00 | 43 | 1018.8 |
| 20260501192543 | 13 | 353 | 9.7 | 24.1 | 0.00 | 0.00 | 0.00 | 43 | 1018.8 |
| 20260501192042 | 13 | 325 | 8.0 | 19.3 | 0.00 | 0.00 | 0.00 | 42 | 1018.8 |
| 20260501191539 | 13 | 330 | 6.4 | 19.3 | 0.00 | 0.00 | 0.00 | 43 | 1018.8 |
| 20260501191036 | 13 | 312 | 9.7 | 14.5 | 0.00 | 0.00 | 0.00 | 42 | 1018.8 |
| 20260501190605 | 13 | 304 | 8.0 | 20.9 | 0.00 | 0.00 | 0.00 | 42 | 1018.9 |
| 20260501190044 | 13 | 359 | 9.7 | 24.1 | 0.00 | 0.00 | 0.00 | 44 | 1018.8 |
| 20260501185541 | 13 | 277 | 8.0 | 12.9 | 0.00 | 0.00 | 0.00 | 46 | 1018.8 |
| 20260501185043 | 13 | 348 | 8.0 | 16.1 | 0.00 | 0.00 | 0.00 | 46 | 1018.9 |
| 20260501184039 | 13 | 328 | 8.0 | 16.1 | 0.00 | 0.00 | 0.00 | 45 | 1018.8 |
| 20260501183536 | 13 | 333 | 11.3 | 22.5 | 0.00 | 0.00 | 0.00 | 47 | 1018.9 |
| 20260501183034 | 13 | 308 | 8.0 | 22.5 | 0.00 | 0.00 | 0.00 | 47 | 1018.9 |
| 20260501182532 | 13 | 297 | 4.8 | 16.1 | 0.00 | 0.00 | 0.00 | 48 | 1018.9 |
| 20260501182110 | 13 | 288 | 8.0 | 19.3 | 0.00 | 0.00 | 0.00 | 48 | 1018.9 |
| 20260501181545 | 13 | 355 | 11.3 | 17.7 | 0.00 | 0.00 | 0.00 | 46 | 1018.9 |
| 20260501181104 | 13 | 358 | 6.4 | 16.1 | 0.00 | 0.00 | 0.00 | 49 | 1019.0 |
| 20260501180612 | 13 | 319 | 4.8 | 9.7 | 0.00 | 0.00 | 0.00 | 50 | 1018.9 |
| 20260501180110 | 12 | 297 | 6.4 | 14.5 | 0.00 | 0.00 | 0.00 | 51 | 1019.0 |
| 20260501175608 | 12 | 359 | 4.8 | 14.5 | 0.00 | 0.00 | 0.00 | 49 | 1019.0 |
| 20260501175044 | 12 | 280 | 4.8 | 16.1 | 0.00 | 0.00 | 0.00 | 51 | 1019.1 |
| 20260501174541 | 12 | 359 | 9.7 | 20.9 | 0.00 | 0.00 | 0.00 | 51 | 1019.1 |
| 20260501174039 | 12 | 294 | 8.0 | 20.9 | 0.00 | 0.00 | 0.00 | 52 | 1019.1 |
| 20260501173535 | 12 | 1 | 9.7 | 12.9 | 0.00 | 0.00 | 0.00 | 52 | 1019.2 |
| 20260501173033 | 12 | 300 | 4.8 | 24.1 | 0.00 | 0.00 | 0.00 | 55 | 1019.2 |
| 20260501172549 | 12 | 359 | 11.3 | 24.1 | 0.00 | 0.00 | 0.00 | 52 | 1019.3 |
| 20260501172108 | 12 | 5 | 6.4 | 17.7 | 0.00 | 0.00 | 0.00 | 56 | 1019.2 |
| 20260501171544 | 12 | 330 | 12.9 | 20.9 | 0.00 | 0.00 | 0.00 | 53 | 1019.1 |
| 20260501171043 | 12 | 314 | 6.4 | 20.9 | 0.00 | 0.00 | 0.00 | 55 | 1019.2 |
| 20260501170550 | 12 | 341 | 9.7 | 20.9 | 0.00 | 0.00 | 0.00 | 55 | 1019.2 |
| 20260501165605 | 11 | 303 | 9.7 | 20.9 | 0.00 | 0.03 | 0.00 | 54 | 1019.0 |
| 20260501165103 | 12 | 347 | 8.0 | 19.3 | 0.00 | 0.03 | 0.00 | 58 | 1019.1 |
| 20260501164538 | 12 | 317 | 9.7 | 16.1 | 0.00 | 0.03 | 0.00 | 56 | 1019.1 |
| 20260501164036 | 11 | 330 | 9.7 | 24.1 | 0.00 | 0.03 | 0.00 | 56 | 1019.0 |
| 20260501163554 | 11 | 326 | 9.7 | 24.1 | 0.00 | 0.03 | 0.00 | 56 | 1019.1 |
| 20260501163050 | 12 | 299 | 9.7 | 20.9 | 0.00 | 0.03 | 0.00 | 57 | 1019.0 |
| 20260501162548 | 11 | 349 | 8.0 | 20.9 | 0.00 | 0.03 | 0.00 | 59 | 1019.0 |
| 20260501162043 | 11 | 306 | 11.3 | 20.9 | 0.00 | 0.03 | 0.00 | 56 | 1018.9 |
| 20260501161600 | 11 | 1 | 9.7 | 17.7 | 0.00 | 0.03 | 0.00 | 57 | 1018.9 |
| 20260501161036 | 11 | 314 | 8.0 | 12.9 | 0.00 | 0.03 | 0.00 | 59 | 1018.9 |
| 20260501160603 | 11 | 335 | 6.4 | 16.1 | 0.00 | 0.03 | 0.00 | 60 | 1018.9 |
| 20260501160041 | 11 | 276 | 9.7 | 16.1 | 0.00 | 0.03 | 0.00 | 59 | 1018.9 |
| 20260501155538 | 11 | 293 | 9.7 | 16.1 | 0.00 | 0.03 | 0.00 | 59 | 1018.8 |
| 20260501155047 | 10 | 309 | 9.7 | 17.7 | 0.00 | 0.03 | 0.00 | 61 | 1018.9 |
| 20260501154043 | 10 | 307 | 9.7 | 14.5 | 0.00 | 0.03 | 0.00 | 61 | 1018.8 |
| 20260501153540 | 10 | 266 | 8.0 | 17.7 | 0.00 | 0.03 | 0.00 | 62 | 1018.8 |
| 20260501153037 | 10 | 342 | 9.7 | 17.7 | 0.00 | 0.03 | 0.00 | 61 | 1018.7 |
| 20260501152534 | 10 | 304 | 4.8 | 12.9 | 0.00 | 0.03 | 0.00 | 63 | 1018.7 |